createdAt,value
2018-02-02T00:01:40.651Z,7.97
2018-02-02T00:04:08.389Z,5.47
2018-02-02T00:06:36.052Z,7.90
2018-02-02T00:09:03.715Z,8.57
2018-02-02T00:11:31.335Z,7.87
2018-02-02T00:13:58.957Z,8.20
2018-02-02T00:16:26.600Z,8.60
2018-02-02T00:18:54.218Z,9.63
2018-02-02T00:21:22.648Z,8.70
2018-02-02T00:23:50.266Z,7.90
2018-02-02T00:26:17.903Z,10.00
2018-02-02T00:28:46.353Z,7.90
2018-02-02T00:31:14.790Z,10.80
2018-02-02T00:33:42.408Z,10.17
2018-02-02T00:36:10.163Z,10.27
2018-02-02T00:38:37.914Z,8.60
2018-02-02T00:41:05.576Z,11.10
2018-02-02T00:43:33.202Z,8.67
2018-02-02T00:46:01.631Z,8.20
2018-02-02T00:48:29.266Z,8.00
2018-02-02T00:51:02.594Z,10.20
2018-02-02T00:53:30.246Z,10.50
2018-02-02T00:55:57.910Z,7.27
2018-02-02T00:58:25.551Z,12.30
2018-02-02T01:00:53.226Z,10.10
2018-02-02T01:03:20.872Z,9.10
2018-02-02T01:05:48.490Z,10.37
2018-02-02T01:08:16.919Z,6.20
2018-02-02T01:10:44.534Z,11.20
2018-02-02T01:13:12.917Z,8.60
2018-02-02T01:15:41.565Z,10.80
2018-02-02T01:18:09.174Z,8.13
2018-02-02T01:20:37.585Z,6.87
2018-02-02T01:23:05.199Z,8.77
2018-02-02T01:25:32.847Z,11.17
2018-02-02T01:28:00.685Z,10.83
2018-02-02T01:30:28.361Z,9.07
2018-02-02T01:32:56.117Z,10.03
2018-02-02T01:35:23.764Z,10.30
2018-02-02T01:37:51.464Z,9.90
2018-02-02T01:40:19.078Z,7.53
2018-02-02T01:42:46.730Z,11.60
2018-02-02T01:45:14.350Z,10.27
2018-02-02T01:47:41.961Z,11.47
2018-02-02T01:50:09.658Z,7.90
2018-02-02T01:52:37.285Z,8.77
2018-02-02T01:55:04.987Z,9.63
2018-02-02T01:57:32.606Z,10.10
2018-02-02T02:00:00.258Z,7.60
2018-02-02T02:02:28.638Z,9.00
2018-02-02T02:04:57.015Z,9.73
2018-02-02T02:07:25.431Z,10.33
2018-02-02T02:09:53.067Z,10.20
2018-02-02T02:12:20.734Z,10.00
2018-02-02T02:14:48.353Z,10.37
2018-02-02T02:17:16.050Z,10.00
2018-02-02T02:19:43.681Z,10.90
2018-02-02T02:22:11.300Z,10.37
2018-02-02T02:24:38.941Z,8.83
2018-02-02T02:27:06.558Z,10.67
2018-02-02T02:29:34.306Z,9.60
2018-02-02T02:32:01.929Z,9.97
2018-02-02T02:34:29.582Z,9.47
2018-02-02T02:36:57.207Z,10.97
2018-02-02T02:39:24.833Z,10.00
2018-02-02T02:41:52.479Z,7.07
2018-02-02T02:44:20.203Z,10.90
2018-02-02T02:46:47.847Z,9.70
2018-02-02T02:49:15.466Z,9.00
2018-02-02T02:51:43.162Z,10.10
2018-02-02T02:54:10.787Z,11.90
2018-02-02T02:56:38.506Z,9.67
2018-02-02T02:59:07.659Z,10.77
2018-02-02T03:01:35.393Z,10.50
2018-02-02T03:04:03.814Z,11.87
2018-02-02T03:06:31.446Z,11.73
2018-02-02T03:08:59.906Z,10.97
2018-02-02T03:11:28.454Z,13.47
2018-02-02T03:13:56.209Z,10.30
2018-02-02T03:16:23.973Z,9.93
2018-02-02T03:18:51.603Z,11.60
2018-02-02T03:21:19.300Z,10.97
2018-02-02T03:23:46.935Z,12.40
2018-02-02T03:26:14.650Z,11.17
2018-02-02T03:28:42.298Z,10.27
2018-02-02T03:31:09.941Z,12.40
2018-02-02T03:33:37.582Z,11.20
2018-02-02T03:36:05.186Z,9.80
2018-02-02T03:38:33.614Z,10.67
2018-02-02T03:41:01.990Z,7.00
2018-02-02T03:43:30.371Z,13.73
2018-02-02T03:45:58.797Z,11.87
2018-02-02T03:48:26.410Z,9.20
2018-02-02T03:50:54.842Z,10.73
2018-02-02T03:53:22.446Z,10.13
2018-02-02T03:55:50.867Z,10.17
2018-02-02T03:58:18.490Z,13.20
2018-02-02T04:00:46.884Z,10.33
2018-02-02T04:03:14.525Z,13.90
2018-02-02T04:05:42.908Z,10.40
2018-02-02T04:08:11.324Z,10.60
2018-02-02T04:10:39.021Z,11.00
2018-02-02T04:13:06.638Z,8.77
2018-02-02T04:15:34.289Z,10.27
2018-02-02T04:18:01.903Z,6.57
2018-02-02T04:20:29.550Z,11.47
2018-02-02T04:22:57.182Z,10.50
2018-02-02T04:25:24.820Z,9.50
2018-02-02T04:27:53.246Z,10.10
2018-02-02T04:30:20.870Z,9.70
2018-02-02T04:32:48.514Z,9.57
2018-02-02T04:35:26.817Z,9.80
2018-02-02T04:37:54.500Z,9.07
2018-02-02T04:40:22.872Z,9.37
2018-02-02T04:42:51.251Z,9.10
2018-02-02T04:45:19.661Z,8.37
2018-02-02T04:47:47.285Z,8.50
2018-02-02T04:50:14.945Z,9.27
2018-02-02T04:52:43.346Z,9.73
2018-02-02T04:55:11.782Z,9.47
2018-02-02T04:57:39.414Z,8.70
2018-02-02T05:00:07.026Z,11.10
2018-02-02T05:02:34.674Z,8.40
2018-02-02T05:05:02.302Z,9.07
2018-02-02T05:07:29.963Z,8.40
2018-02-02T05:09:57.696Z,9.07
2018-02-02T05:12:26.736Z,10.67
2018-02-02T05:14:54.349Z,7.83
2018-02-02T05:17:22.796Z,11.77
2018-02-02T05:19:51.912Z,8.60
2018-02-02T05:22:20.301Z,10.70
2018-02-02T05:24:48.718Z,8.43
2018-02-02T05:27:16.346Z,9.77
2018-02-02T05:29:44.750Z,9.83
2018-02-02T05:32:12.407Z,9.87
2018-02-02T05:34:40.047Z,9.20
2018-02-02T05:37:08.491Z,8.30
2018-02-02T05:39:36.113Z,10.47
2018-02-02T05:42:03.728Z,9.83
2018-02-02T05:44:31.376Z,7.37
2018-02-02T05:46:58.998Z,10.53
2018-02-02T05:49:26.661Z,10.27
2018-02-02T05:51:54.271Z,9.93
2018-02-02T05:54:21.908Z,8.67
2018-02-02T05:56:49.772Z,9.90
2018-02-02T05:59:17.449Z,9.80
2018-02-02T06:01:45.092Z,9.20
2018-02-02T06:04:12.714Z,8.10
2018-02-02T06:06:41.093Z,10.37
2018-02-02T06:09:09.519Z,10.13
2018-02-02T06:11:37.135Z,9.47
2018-02-02T06:14:05.662Z,9.37
2018-02-02T06:16:33.270Z,11.57
2018-02-02T06:19:01.657Z,9.50
2018-02-02T06:21:30.114Z,9.10
2018-02-02T06:23:57.730Z,9.70
2018-02-02T06:26:25.380Z,8.50
2018-02-02T06:28:52.997Z,9.83
2018-02-02T06:31:20.621Z,8.90
2018-02-02T06:33:48.276Z,10.93
2018-02-02T06:36:15.890Z,10.50
2018-02-02T06:38:44.338Z,12.60
2018-02-02T06:41:11.955Z,7.93
2018-02-02T06:43:40.342Z,10.30
2018-02-02T06:46:08.780Z,10.60
2018-02-02T06:48:36.406Z,10.27
2018-02-02T06:51:04.071Z,10.53
2018-02-02T06:53:31.866Z,10.40
2018-02-02T06:55:59.500Z,9.63
2018-02-02T06:58:27.147Z,8.07
2018-02-02T07:00:54.758Z,8.57
2018-02-02T07:03:22.458Z,10.27
2018-02-02T07:05:50.827Z,9.63
2018-02-02T07:08:19.202Z,8.00
2018-02-02T07:10:47.622Z,8.77
2018-02-02T07:13:15.242Z,7.07
2018-02-02T07:15:43.694Z,8.97
2018-02-02T07:18:11.318Z,7.30
2018-02-02T07:20:39.002Z,8.70
2018-02-02T07:23:06.646Z,8.50
2018-02-02T07:25:34.294Z,7.53
2018-02-02T07:28:01.906Z,7.23
2018-02-02T07:30:29.561Z,7.83
2018-02-02T07:32:57.181Z,10.00
2018-02-02T07:35:24.826Z,7.70
2018-02-02T07:37:53.218Z,8.60
2018-02-02T07:40:20.914Z,7.80
2018-02-02T07:42:48.533Z,7.40
2018-02-02T07:45:16.956Z,5.90
2018-02-02T07:50:18.486Z,7.90
2018-02-02T07:52:46.866Z,9.00
2018-02-02T07:55:15.287Z,8.20
2018-02-02T07:57:42.894Z,6.87
2018-02-02T08:00:11.277Z,7.93
2018-02-02T08:02:39.679Z,8.97
2018-02-02T08:05:07.470Z,8.67
2018-02-02T08:07:35.337Z,7.90
2018-02-02T08:10:03.012Z,8.63
2018-02-02T08:12:30.657Z,7.40
2018-02-02T08:14:58.279Z,8.30
2018-02-02T08:17:26.737Z,9.63
2018-02-02T08:19:54.350Z,6.90
2018-02-02T08:22:21.960Z,6.90
2018-02-02T08:24:49.604Z,7.93
2018-02-02T08:27:17.231Z,6.90
2018-02-02T08:29:44.880Z,8.17
2018-02-02T08:32:12.498Z,8.20
2018-02-02T08:34:40.129Z,6.53
2018-02-02T08:37:07.775Z,9.20
2018-02-02T08:39:35.386Z,7.80
2018-02-02T08:42:03.034Z,7.10
2018-02-02T08:44:30.645Z,7.37
2018-02-02T08:46:59.018Z,7.93
2018-02-02T08:49:27.452Z,7.07
2018-02-02T08:51:55.062Z,7.67
2018-02-02T08:54:23.508Z,7.93
2018-02-02T08:56:51.126Z,7.23
2018-02-02T08:59:18.826Z,7.10
2018-02-02T09:01:52.104Z,8.20
2018-02-02T09:04:19.716Z,7.50
2018-02-02T09:06:48.125Z,5.20
2018-02-02T09:09:15.737Z,8.13
2018-02-02T09:11:43.383Z,6.87
2018-02-02T09:14:11.040Z,6.90
2018-02-02T09:16:38.674Z,6.70
2018-02-02T09:19:06.317Z,6.80
2018-02-02T09:21:33.943Z,6.70
2018-02-02T09:24:01.810Z,7.70
2018-02-02T09:26:29.446Z,7.17
2018-02-02T09:28:57.102Z,7.47
2018-02-02T09:31:24.871Z,6.10
2018-02-02T09:33:52.492Z,6.90
2018-02-02T09:36:22.014Z,8.77
2018-02-02T09:38:49.640Z,6.80
2018-02-02T09:41:18.058Z,6.40
2018-02-02T09:43:45.758Z,7.13
2018-02-02T09:46:13.508Z,6.70
2018-02-02T09:48:41.119Z,5.47
2018-02-02T09:51:09.525Z,7.90
2018-02-02T09:53:37.311Z,6.60
2018-02-02T09:56:05.012Z,5.87
2018-02-02T09:58:32.612Z,6.30
2018-02-02T10:01:00.304Z,6.57
2018-02-02T10:03:27.957Z,5.70
2018-02-02T10:05:55.561Z,5.80
2018-02-02T10:08:23.982Z,6.70
2018-02-02T10:10:51.665Z,6.57
2018-02-02T10:13:19.294Z,5.23
2018-02-02T10:15:46.894Z,5.37
2018-02-02T10:18:14.595Z,5.07
2018-02-02T10:20:43.040Z,5.07
2018-02-02T10:23:10.706Z,5.50
2018-02-02T10:25:38.318Z,5.00
2018-02-02T10:28:05.951Z,6.10
2018-02-02T10:30:33.573Z,6.00
2018-02-02T10:33:01.207Z,5.93
2018-02-02T10:35:29.005Z,5.13
2018-02-02T10:37:56.915Z,5.17
2018-02-02T10:40:25.291Z,4.60
2018-02-02T10:42:53.705Z,5.30
2018-02-02T10:45:21.328Z,4.80
2018-02-02T10:47:48.981Z,4.43
2018-02-02T10:50:16.598Z,4.23
2018-02-02T10:52:44.201Z,4.50
2018-02-02T10:55:11.852Z,4.30
2018-02-02T10:57:39.456Z,4.10
2018-02-02T11:00:07.987Z,3.37
2018-02-02T11:02:41.425Z,3.67
2018-02-02T11:05:09.062Z,3.87
2018-02-02T11:07:36.686Z,3.90
2018-02-02T11:10:04.304Z,3.60
2018-02-02T11:12:31.942Z,4.20
2018-02-02T11:14:59.560Z,3.97
2018-02-02T11:17:27.238Z,3.83
2018-02-02T11:19:54.854Z,3.47
2018-02-02T11:22:23.270Z,5.10
2018-02-02T11:24:50.884Z,4.17
2018-02-02T11:27:19.289Z,3.33
2018-02-02T11:29:47.695Z,3.53
2018-02-02T11:32:15.302Z,3.67
2018-02-02T11:34:42.951Z,3.80
2018-02-02T11:37:10.560Z,4.43
2018-02-02T11:39:38.942Z,3.80
2018-02-02T11:42:06.586Z,3.50
2018-02-02T11:44:35.022Z,3.50
2018-02-02T11:47:02.677Z,4.30
2018-02-02T11:49:30.291Z,3.20
2018-02-02T11:51:58.675Z,3.97
2018-02-02T11:54:27.078Z,3.70
2018-02-02T11:56:54.809Z,3.57
2018-02-02T11:59:22.458Z,3.80
2018-02-02T12:01:50.067Z,3.17
2018-02-02T12:04:17.856Z,4.30
2018-02-02T12:06:45.503Z,3.60
2018-02-02T12:09:13.122Z,3.30
2018-02-02T12:11:41.546Z,3.13
2018-02-02T12:14:09.254Z,4.00
2018-02-02T12:16:39.471Z,2.90
2018-02-02T12:19:08.020Z,3.20
2018-02-02T12:21:36.302Z,3.50
2018-02-02T12:27:03.548Z,2.80
2018-02-02T12:29:42.012Z,2.77
2018-02-02T12:32:15.262Z,3.00
2018-02-02T12:34:44.797Z,3.20
2018-02-02T12:37:12.388Z,3.67
2018-02-02T12:39:40.773Z,3.33
2018-02-02T12:42:09.232Z,2.90
2018-02-02T12:44:38.359Z,3.27
2018-02-02T12:47:06.716Z,3.70
2018-02-02T12:49:34.316Z,3.03
2018-02-02T12:52:01.941Z,3.23
2018-02-02T12:54:29.528Z,3.00
2018-02-02T12:56:57.162Z,4.00
2018-02-02T12:59:24.749Z,4.20
2018-02-02T13:01:52.440Z,3.90
2018-02-02T13:04:20.053Z,3.30
2018-02-02T13:06:48.412Z,3.90
2018-02-02T13:09:16.029Z,3.20
2018-02-02T13:11:43.632Z,3.40
2018-02-02T13:14:11.220Z,4.27
2018-02-02T13:16:39.608Z,3.70
2018-02-02T13:19:07.411Z,3.40
2018-02-02T13:21:35.051Z,3.97
2018-02-02T13:24:02.641Z,4.40
2018-02-02T13:26:30.272Z,4.50
2018-02-02T13:28:57.900Z,3.63
2018-02-02T13:31:26.533Z,3.60
2018-02-02T13:33:54.119Z,4.80
2018-02-02T13:36:21.744Z,3.50
2018-02-02T13:38:49.337Z,4.60
2018-02-02T13:41:16.943Z,4.00
2018-02-02T13:43:44.536Z,5.00
2018-02-02T13:46:12.162Z,6.20
2018-02-02T13:48:40.525Z,6.43
2018-02-02T13:51:08.900Z,5.77
2018-02-02T13:53:36.501Z,5.40
2018-02-02T13:56:04.109Z,5.47
2018-02-02T13:58:31.703Z,5.90
2018-02-02T14:00:59.400Z,4.47
2018-02-02T14:03:27.000Z,4.50
2018-02-02T14:05:54.626Z,6.17
2018-02-02T14:08:22.220Z,5.80
2018-02-02T14:10:49.845Z,5.97
2018-02-02T14:13:17.432Z,5.00
2018-02-02T14:15:45.065Z,5.17
2018-02-02T14:18:12.653Z,6.30
2018-02-02T14:20:40.232Z,5.50
2018-02-02T14:23:08.632Z,5.17
2018-02-02T14:25:36.233Z,6.60
2018-02-02T14:28:03.869Z,6.10
2018-02-02T14:30:31.484Z,5.00
2018-02-02T14:32:59.951Z,7.07
2018-02-02T14:35:27.563Z,6.20
2018-02-02T14:37:55.151Z,6.47
2018-02-02T14:40:22.789Z,7.77
2018-02-02T14:42:50.382Z,5.50
2018-02-02T14:45:17.972Z,9.63
2018-02-02T14:47:45.604Z,5.80
2018-02-02T14:50:13.193Z,6.70
2018-02-02T14:52:41.595Z,8.37
2018-02-02T14:55:09.194Z,8.10
2018-02-02T14:57:36.797Z,6.80
2018-02-02T15:00:05.180Z,6.87
2018-02-02T15:02:33.546Z,9.03
2018-02-02T15:05:01.172Z,6.00
2018-02-02T15:07:28.780Z,7.03
2018-02-02T15:09:57.140Z,6.67
2018-02-02T15:12:24.868Z,6.47
2018-02-02T15:14:52.471Z,6.90
2018-02-02T15:17:20.862Z,6.77
2018-02-02T15:19:49.208Z,6.20
2018-02-02T15:22:20.496Z,7.80
2018-02-02T15:24:48.135Z,5.80
2018-02-02T15:27:15.761Z,8.00
2018-02-02T15:29:43.384Z,9.57
2018-02-02T15:32:11.000Z,7.90
2018-02-02T15:34:38.619Z,8.83
2018-02-02T15:37:06.213Z,7.00
2018-02-02T15:39:33.840Z,6.90
2018-02-02T15:42:01.424Z,8.53
2018-02-02T15:44:29.042Z,6.70
2018-02-02T15:46:57.396Z,7.40
2018-02-02T15:49:25.020Z,6.23
2018-02-02T15:51:52.615Z,8.27
2018-02-02T15:54:24.007Z,6.43
2018-02-02T15:56:52.637Z,16.50
2018-02-02T15:59:20.240Z,8.83
2018-02-02T16:01:47.866Z,8.47
2018-02-02T16:04:15.525Z,9.40
2018-02-02T16:06:43.149Z,6.67
2018-02-02T16:09:10.732Z,8.70
2018-02-02T16:11:38.357Z,7.70
2018-02-02T16:14:06.153Z,7.20
2018-02-02T16:16:33.744Z,7.80
2018-02-02T16:19:02.130Z,8.20
2018-02-02T16:21:30.481Z,9.30
2018-02-02T16:23:58.108Z,8.60
2018-02-02T16:26:25.708Z,7.77
2018-02-02T16:28:53.343Z,6.17
2018-02-02T16:31:20.964Z,8.60
2018-02-02T16:33:49.329Z,9.00
2018-02-02T16:36:17.929Z,9.73
2018-02-02T16:38:46.292Z,9.00
2018-02-02T16:41:14.684Z,6.80
2018-02-02T16:43:43.120Z,10.87
2018-02-02T16:46:10.748Z,15.43
2018-02-02T16:48:38.340Z,11.57
2018-02-02T16:51:05.965Z,8.87
2018-02-02T16:53:33.548Z,9.33
2018-02-02T16:56:01.180Z,9.10
2018-02-02T16:58:28.772Z,11.60
2018-02-02T17:00:56.412Z,7.53
2018-02-02T17:03:23.997Z,9.93
2018-02-02T17:05:51.675Z,7.50
2018-02-02T17:08:19.244Z,8.97
2018-02-02T17:10:47.637Z,6.80
2018-02-02T17:13:16.025Z,7.50
2018-02-02T17:15:44.378Z,8.60
2018-02-02T17:18:12.000Z,8.30
2018-02-02T17:20:39.600Z,8.00
2018-02-02T17:23:07.221Z,8.80
2018-02-02T17:25:34.817Z,6.60
2018-02-02T17:28:03.176Z,6.10
2018-02-02T17:30:30.799Z,7.33
2018-02-02T17:32:58.400Z,7.70
2018-02-02T17:35:26.021Z,7.80
2018-02-02T17:37:55.683Z,7.90
2018-02-02T17:40:23.429Z,6.93
2018-02-02T17:42:51.054Z,7.70
2018-02-02T17:45:18.649Z,8.13
2018-02-02T17:47:46.277Z,7.17
2018-02-02T17:50:13.868Z,8.17
2018-02-02T17:52:41.473Z,7.40
2018-02-02T17:55:09.865Z,7.03
2018-02-02T17:57:38.230Z,6.70
2018-02-02T18:00:05.852Z,6.40
2018-02-02T18:02:50.106Z,8.50
2018-02-02T18:05:17.761Z,9.03
2018-02-02T18:07:45.368Z,6.50
2018-02-02T18:10:13.739Z,6.40
2018-02-02T18:12:42.149Z,6.60
2018-02-02T18:15:09.748Z,10.23
2018-02-02T18:17:37.366Z,7.20
2018-02-02T18:20:04.994Z,7.80
2018-02-02T18:22:32.622Z,9.47
2018-02-02T18:25:00.222Z,8.37
2018-02-02T18:27:27.819Z,9.30
2018-02-02T18:29:55.453Z,8.67
2018-02-02T18:32:23.884Z,8.80
2018-02-02T18:34:51.506Z,6.90
2018-02-02T18:37:19.883Z,6.93
2018-02-02T18:39:48.301Z,7.77
2018-02-02T18:42:15.920Z,6.67
2018-02-02T18:44:44.281Z,7.13
2018-02-02T18:47:11.900Z,8.33
2018-02-02T18:49:39.494Z,6.90
2018-02-02T18:52:07.125Z,8.27
2018-02-02T18:54:34.720Z,7.40
2018-02-02T18:57:02.312Z,7.17
2018-02-02T18:59:29.928Z,6.60
2018-02-02T19:01:57.525Z,6.90
2018-02-02T19:04:25.924Z,8.27
2018-02-02T19:06:53.612Z,7.20
2018-02-02T19:09:21.204Z,6.33
2018-02-02T19:11:48.836Z,5.50
2018-02-02T19:14:16.429Z,6.70
2018-02-02T19:16:44.050Z,4.97
2018-02-02T19:19:11.644Z,5.23
2018-02-02T19:21:39.236Z,4.83
2018-02-02T19:24:06.847Z,5.30
2018-02-02T19:26:34.441Z,5.07
2018-02-02T19:31:37.498Z,3.60
2018-02-02T19:34:05.124Z,5.37
2018-02-02T19:36:32.713Z,4.37
2018-02-02T19:39:00.296Z,4.40
2018-02-02T19:41:27.912Z,4.53
2018-02-02T19:43:55.501Z,5.50
2018-02-02T19:46:23.128Z,4.37
2018-02-02T19:48:50.717Z,5.87
2018-02-02T19:51:18.305Z,4.30
2018-02-02T19:53:45.921Z,4.97
2018-02-02T19:56:13.508Z,5.13
2018-02-02T19:58:41.136Z,6.50
2018-02-02T20:01:08.729Z,4.50
2018-02-02T20:03:36.320Z,4.80
2018-02-02T20:06:04.716Z,5.97
2018-02-02T20:08:33.072Z,4.30
2018-02-02T20:11:00.703Z,5.90
2018-02-02T20:13:30.068Z,5.57
2018-02-02T20:15:57.815Z,5.90
2018-02-02T20:18:27.447Z,5.40
2018-02-02T20:20:55.035Z,5.43
2018-02-02T20:23:22.668Z,7.07
2018-02-02T20:25:50.253Z,5.50
2018-02-02T20:28:18.574Z,6.40
2018-02-02T20:30:46.235Z,6.10
2018-02-02T20:33:13.829Z,5.10
2018-02-02T20:35:41.444Z,5.50
2018-02-02T20:38:09.041Z,5.40
2018-02-02T20:40:37.432Z,6.10
2018-02-02T20:43:05.026Z,5.57
2018-02-02T20:45:32.613Z,5.17
2018-02-02T20:48:00.224Z,5.60
2018-02-02T20:50:27.844Z,5.33
2018-02-02T20:52:55.448Z,5.30
2018-02-02T20:55:23.044Z,5.77
2018-02-02T20:57:50.670Z,4.77
2018-02-02T21:00:18.268Z,4.73
2018-02-02T21:02:45.885Z,4.43
2018-02-02T21:05:13.474Z,4.70
2018-02-02T21:07:41.092Z,4.43
2018-02-02T21:10:08.681Z,4.10
2018-02-02T21:12:36.277Z,4.87
2018-02-02T21:15:04.007Z,4.73
2018-02-02T21:17:31.596Z,3.83
2018-02-02T21:19:59.218Z,4.77
2018-02-02T21:22:26.814Z,4.47
2018-02-02T21:24:54.396Z,4.37
2018-02-02T21:27:22.777Z,4.13
2018-02-02T21:29:51.129Z,5.50
2018-02-02T21:32:18.749Z,5.30
2018-02-02T21:34:46.333Z,4.43
2018-02-02T21:37:14.097Z,4.93
2018-02-02T21:39:41.694Z,5.43
2018-02-02T21:42:09.289Z,5.90
2018-02-02T21:44:37.178Z,6.17
2018-02-02T21:47:04.773Z,5.33
2018-02-02T21:49:32.368Z,6.93
2018-02-02T21:51:59.996Z,6.13
2018-02-02T21:54:27.601Z,6.17
2018-02-02T21:56:55.199Z,5.97
2018-02-02T21:59:22.830Z,6.73
2018-02-02T22:01:50.421Z,5.60
2018-02-02T22:04:18.015Z,7.23
2018-02-02T22:06:46.398Z,6.70
2018-02-02T22:09:14.758Z,6.07
2018-02-02T22:11:42.380Z,7.70
2018-02-02T22:14:10.161Z,8.13
2018-02-02T22:16:38.026Z,7.67
2018-02-02T22:19:05.997Z,8.00
2018-02-02T22:21:33.739Z,7.03
2018-02-02T22:24:01.626Z,10.03
2018-02-02T22:26:29.493Z,8.37
2018-02-02T22:28:57.383Z,9.10
2018-02-02T22:31:25.225Z,9.83
2018-02-02T22:33:53.102Z,8.80
2018-02-02T22:36:20.692Z,11.63
2018-02-02T22:38:49.053Z,10.17
2018-02-02T22:41:16.685Z,10.00
2018-02-02T22:43:44.282Z,11.23
2018-02-02T22:46:12.083Z,11.93
2018-02-02T22:48:39.721Z,12.10
2018-02-02T22:51:08.082Z,11.50
2018-02-02T22:53:35.679Z,12.20
2018-02-02T22:56:03.338Z,12.10
2018-02-02T22:58:30.941Z,13.53
2018-02-02T23:00:58.533Z,12.50
2018-02-02T23:03:27.712Z,12.90
2018-02-02T23:05:55.361Z,13.00
2018-02-02T23:08:22.955Z,11.83
2018-02-02T23:10:51.352Z,13.17
2018-02-02T23:13:19.717Z,14.30
2018-02-02T23:15:48.117Z,13.90
2018-02-02T23:18:15.713Z,14.30
2018-02-02T23:20:43.309Z,14.03
2018-02-02T23:23:10.929Z,12.17
2018-02-02T23:25:38.700Z,12.60
2018-02-02T23:28:06.324Z,15.20
2018-02-02T23:30:33.956Z,12.03
2018-02-02T23:33:02.324Z,12.53
2018-02-02T23:35:29.941Z,11.40
2018-02-02T23:37:57.541Z,14.13
2018-02-02T23:40:25.176Z,14.63
2018-02-02T23:42:52.777Z,13.63
2018-02-02T23:45:20.367Z,11.00
2018-02-02T23:47:47.989Z,7.50
2018-02-02T23:50:15.624Z,5.80
2018-02-02T23:52:43.247Z,4.53
2018-02-02T23:55:10.842Z,4.17
2018-02-02T23:57:38.432Z,3.50
